Time;durP1;ratioP1;P1;durP2;ratioP2;P2;SDS_P1;SDS_P2;PMS_P1;PMS_P2;Temp;Humidity;BMP_temperature;BMP_pressure;BME280_temperature;BME280_humidity;BME280_pressure;Samples;Min_cycle;Max_cycle;Signal;HPM_P1;HPM_P2
2022/11/19 00:01:03;;;;;;;12.77;7.78;;;23.70;60.60;;;;;;5046523;28;20037;-69
2022/11/19 00:03:31;;;;;;;10.45;7.28;;;23.70;60.60;;;;;;5034839;28;20029;-69
2022/11/19 00:06:03;;;;;;;8.82;6.80;;;23.80;60.00;;;;;;5034579;28;20078;-69
2022/11/19 00:08:29;;;;;;;8.40;6.10;;;23.70;60.10;;;;;;5036971;28;20086;-69
2022/11/19 00:11:01;;;;;;;10.45;7.38;;;23.90;60.60;;;;;;5033978;28;20052;-69
2022/11/19 00:13:27;;;;;;;11.57;7.32;;;23.80;60.00;;;;;;5034425;28;20183;-69
2022/11/19 00:15:53;;;;;;;10.73;7.13;;;23.80;60.10;;;;;;5037985;28;20111;-69
2022/11/19 00:18:19;;;;;;;9.27;4.93;;;23.90;59.90;;;;;;5054414;28;20021;-69
2022/11/19 00:20:45;;;;;;;6.20;4.38;;;23.90;60.00;;;;;;5054198;28;20048;-69
2022/11/19 00:23:11;;;;;;;5.63;4.22;;;23.90;59.50;;;;;;5046488;28;20025;-70
2022/11/19 00:25:37;;;;;;;5.35;4.43;;;24.00;59.50;;;;;;5048184;28;20482;-70
2022/11/19 00:28:03;;;;;;;5.78;4.20;;;23.90;59.50;;;;;;5053327;28;20052;-69
2022/11/19 00:30:29;;;;;;;4.72;4.07;;;23.80;59.40;;;;;;5048115;28;20467;-69
2022/11/19 00:32:55;;;;;;;5.90;3.83;;;23.70;59.30;;;;;;5045666;28;20130;-69
2022/11/19 00:35:21;;;;;;;4.30;3.20;;;23.80;59.40;;;;;;5033150;28;20042;-70
2022/11/19 00:37:47;;;;;;;3.55;3.10;;;23.70;59.60;;;;;;5032047;28;20026;-69
2022/11/19 00:40:13;;;;;;;4.43;3.33;;;23.70;59.70;;;;;;5049165;28;20097;-70
2022/11/19 00:43:45;;;;;;;3.92;3.30;;;23.60;59.00;;;;;;5053805;28;20393;-69
2022/11/19 00:45:25;;;;;;;4.70;2.85;;;23.60;59.90;;;;;;5051748;28;20026;-69
2022/11/19 00:47:51;;;;;;;3.92;3.38;;;23.50;59.90;;;;;;5049145;28;20024;-69
2022/11/19 00:50:17;;;;;;;4.15;3.75;;;23.50;60.20;;;;;;5053558;28;20047;-69
2022/11/19 00:52:43;;;;;;;6.18;3.42;;;23.40;60.30;;;;;;5045702;28;20664;-69
2022/11/19 00:55:09;;;;;;;3.72;3.20;;;23.50;60.10;;;;;;5045847;28;20112;-69
2022/11/19 00:57:35;;;;;;;4.00;3.03;;;23.50;60.30;;;;;;5053978;28;20063;-69
2022/11/19 01:00:01;;;;;;;3.22;2.92;;;23.50;60.30;;;;;;5053576;28;20029;-69
2022/11/19 01:02:27;;;;;;;4.03;3.33;;;23.70;59.70;;;;;;5046536;28;20060;-69
2022/11/19 01:04:53;;;;;;;5.30;3.55;;;23.50;59.30;;;;;;5042845;28;20470;-69
2022/11/19 01:07:19;;;;;;;4.35;3.50;;;23.50;60.00;;;;;;5036191;28;20467;-69
2022/11/19 01:09:46;;;;;;;4.85;3.45;;;23.40;60.30;;;;;;5043546;28;20536;-69
2022/11/19 01:12:12;;;;;;;2.80;2.35;;;23.50;60.10;;;;;;5050532;28;20087;-69
2022/11/19 01:14:38;;;;;;;2.97;2.42;;;23.50;59.30;;;;;;5053203;28;20474;-69
2022/11/19 01:17:03;;;;;;;2.55;1.95;;;23.50;59.90;;;;;;5050165;28;20045;-69
2022/11/19 01:19:29;;;;;;;3.20;2.88;;;23.40;58.80;;;;;;5053193;28;20454;-69
2022/11/19 01:21:55;;;;;;;2.78;1.90;;;23.40;58.20;;;;;;5051316;28;20060;-69
2022/11/19 01:24:21;;;;;;;2.88;1.92;;;23.40;59.20;;;;;;5042102;28;20049;-69
2022/11/19 01:26:47;;;;;;;3.20;2.35;;;23.40;59.00;;;;;;5052017;28;20037;-69
2022/11/19 01:29:13;;;;;;;3.13;2.30;;;23.40;59.70;;;;;;5052017;28;20160;-69
2022/11/19 01:31:39;;;;;;;2.17;1.75;;;23.30;56.70;;;;;;5050147;28;20381;-69
2022/11/19 01:34:05;;;;;;;2.25;1.88;;;23.20;57.40;;;;;;5051760;28;20041;-69
2022/11/19 01:36:31;;;;;;;2.88;1.50;;;23.20;57.60;;;;;;5047325;28;20355;-69
2022/11/19 01:38:57;;;;;;;0.88;0.82;;;23.10;58.70;;;;;;5046466;28;20071;-69
2022/11/19 01:41:26;;;;;;;0.80;0.80;;;23.20;59.10;;;;;;5049547;28;20036;-69
2022/11/19 01:43:59;;;;;;;1.02;0.85;;;23.10;59.00;;;;;;5044274;28;20026;-69
2022/11/19 01:46:28;;;;;;;0.65;0.65;;;23.20;60.20;;;;;;5020194;28;20037;-69
2022/11/19 01:49:00;;;;;;;1.10;0.80;;;23.30;59.40;;;;;;5032767;28;20224;-69
2022/11/19 01:51:42;;;;;;;1.27;0.80;;;23.20;58.10;;;;;;5048958;28;20030;-69
2022/11/19 01:54:24;;;;;;;1.13;1.00;;;23.30;58.10;;;;;;5045038;28;20034;-69
2022/11/19 01:56:52;;;;;;;1.35;1.20;;;23.30;56.20;;;;;;5013067;28;20068;-68
2022/11/19 01:59:18;;;;;;;1.35;1.10;;;23.10;59.10;;;;;;5041858;28;20108;-69
2022/11/19 02:01:44;;;;;;;1.20;1.10;;;23.20;58.90;;;;;;5039130;28;20134;-69
2022/11/19 02:04:13;;;;;;;0.98;0.80;;;23.10;58.90;;;;;;5032301;28;20099;-69
2022/11/19 02:06:41;;;;;;;1.00;0.90;;;23.10;59.00;;;;;;5031533;28;20479;-69
2022/11/19 02:09:07;;;;;;;1.75;1.02;;;23.10;59.30;;;;;;5029085;28;20059;-69
2022/11/19 02:11:36;;;;;;;3.20;1.15;;;23.10;59.10;;;;;;5065385;28;20155;-70
2022/11/19 02:14:23;;;;;;;2.15;1.10;;;23.10;59.00;;;;;;5050067;28;20119;-69
2022/11/19 02:17:02;;;;;;;1.10;0.88;;;23.20;59.10;;;;;;5048801;28;20059;-70
2022/11/19 02:19:40;;;;;;;1.15;0.88;;;23.10;58.90;;;;;;5050237;28;20167;-69
2022/11/19 02:22:15;;;;;;;0.80;0.80;;;23.10;60.20;;;;;;5045624;28;20032;-70
2022/11/19 02:24:53;;;;;;;1.38;1.00;;;23.00;58.80;;;;;;5042367;28;20033;-69
2022/11/19 02:27:49;;;;;;;1.23;1.00;;;22.90;57.80;;;;;;5033057;28;20075;-69
2022/11/19 02:30:18;;;;;;;1.52;1.10;;;23.00;60.60;;;;;;5048759;28;20068;-69
2022/11/19 02:33:13;;;;;;;0.98;0.93;;;22.90;60.70;;;;;;5050058;28;20051;-69
2022/11/19 02:36:17;;;;;;;0.50;0.50;;;22.90;60.80;;;;;;5006629;28;20046;-70
2022/11/19 02:38:59;;;;;;;0.60;0.60;;;22.80;60.70;;;;;;4960256;28;20051;-69
2022/11/19 02:41:43;;;;;;;0.77;0.65;;;22.90;59.40;;;;;;4963605;28;20070;-69
2022/11/19 02:47:11;;;;;;;0.85;0.50;;;23.10;60.40;;;;;;4968338;28;20054;-69
2022/11/19 02:49:43;;;;;;;0.50;0.50;;;23.00;60.40;;;;;;4970031;28;20477;-69
2022/11/19 02:52:12;;;;;;;0.40;0.40;;;23.00;60.50;;;;;;4968417;28;20046;-69
2022/11/19 02:54:38;;;;;;;0.40;0.40;;;23.00;56.70;;;;;;4964153;28;20536;-69
2022/11/19 02:57:05;;;;;;;0.65;0.60;;;23.10;59.70;;;;;;4956476;28;20090;-69
2022/11/19 03:05:25;;;;;;;0.50;0.50;;;22.90;58.90;;;;;;4950571;29;20404;-69
2022/11/19 03:07:51;;;;;;;0.40;0.40;;;23.00;60.30;;;;;;4961692;28;20413;-70
2022/11/19 03:10:21;;;;;;;0.35;0.35;;;23.00;60.00;;;;;;4964998;28;20070;-69
2022/11/19 03:18:58;;;;;;;0.50;0.50;;;22.90;59.30;;;;;;4988877;28;20553;-69
2022/11/19 03:21:37;;;;;;;0.30;0.30;;;22.80;58.50;;;;;;4987020;28;20472;-69
2022/11/19 03:24:19;;;;;;;0.40;0.40;;;22.90;60.60;;;;;;4986034;28;20053;-69
2022/11/19 03:27:01;;;;;;;0.20;0.20;;;22.80;59.90;;;;;;4984645;28;20065;-67
2022/11/19 03:29:31;;;;;;;0.30;0.30;;;22.90;60.00;;;;;;4972549;28;20106;-69
2022/11/19 03:32:05;;;;;;;0.47;0.47;;;22.80;59.10;;;;;;4986491;28;20038;-69
2022/11/19 03:34:34;;;;;;;0.40;0.40;;;22.80;59.90;;;;;;4988088;28;20088;-69
2022/11/19 03:37:03;;;;;;;0.40;0.40;;;22.80;59.50;;;;;;4987082;28;20046;-69
2022/11/19 03:39:29;;;;;;;0.55;0.55;;;22.70;59.80;;;;;;4993224;28;20376;-69
2022/11/19 03:41:56;;;;;;;0.32;0.32;;;22.80;57.50;;;;;;5006123;28;20038;-69
2022/11/19 03:44:35;;;;;;;0.80;0.60;;;22.80;59.00;;;;;;5008678;28;20065;-69
2022/11/19 03:47:13;;;;;;;0.65;0.63;;;22.70;58.40;;;;;;4999823;28;20057;-69
2022/11/19 03:49:43;;;;;;;0.50;0.50;;;22.70;55.10;;;;;;5008318;28;20064;-69
2022/11/19 03:52:18;;;;;;;0.68;0.68;;;22.70;60.50;;;;;;4992770;28;20042;-69
2022/11/19 03:54:44;;;;;;;0.70;0.70;;;22.70;59.10;;;;;;5006355;28;20029;-69
2022/11/19 03:57:14;;;;;;;0.70;0.70;;;22.70;59.80;;;;;;5034973;28;20170;-69
2022/11/19 03:59:41;;;;;;;0.73;0.73;;;22.80;58.70;;;;;;5030475;28;20356;-69
2022/11/19 04:02:09;;;;;;;0.88;0.80;;;22.70;59.90;;;;;;5023347;28;20041;-69
2022/11/19 04:04:36;;;;;;;0.70;0.70;;;22.80;57.30;;;;;;5044086;28;20100;-69
2022/11/19 04:07:10;;;;;;;0.80;0.80;;;22.70;60.60;;;;;;5064938;28;20033;-69
2022/11/19 04:09:36;;;;;;;0.73;0.73;;;22.60;60.00;;;;;;5010423;28;20120;-70
2022/11/19 04:12:03;;;;;;;1.02;0.93;;;22.60;60.60;;;;;;5047062;28;20763;-70
2022/11/19 04:14:29;;;;;;;1.30;1.17;;;22.40;60.30;;;;;;5036198;28;20550;-69
2022/11/19 04:16:55;;;;;;;1.50;1.40;;;22.50;60.40;;;;;;5025629;28;20042;-69
2022/11/19 04:19:21;;;;;;;1.95;1.50;;;22.40;58.40;;;;;;5027896;28;20405;-69
2022/11/19 04:21:47;;;;;;;1.98;1.77;;;22.40;60.00;;;;;;5026889;28;20611;-69
2022/11/19 04:24:14;;;;;;;1.80;1.63;;;22.40;58.80;;;;;;5010028;28;20033;-69
2022/11/19 04:26:40;;;;;;;1.58;1.48;;;22.50;60.30;;;;;;5010463;28;20140;-68
2022/11/19 04:29:06;;;;;;;1.80;1.70;;;22.50;58.90;;;;;;5027765;28;20129;-69
2022/11/19 04:31:32;;;;;;;2.08;1.60;;;22.60;57.70;;;;;;5025902;28;20048;-69
2022/11/19 04:33:58;;;;;;;2.10;1.77;;;22.70;60.10;;;;;;5027914;28;20021;-69
2022/11/19 04:36:24;;;;;;;1.88;1.65;;;22.60;60.10;;;;;;5027053;28;20060;-69
2022/11/19 04:38:50;;;;;;;1.45;1.38;;;22.60;59.40;;;;;;5028572;28;20065;-69
2022/11/19 04:41:16;;;;;;;1.67;1.58;;;22.50;60.00;;;;;;5028558;28;20124;-69
2022/11/19 04:43:42;;;;;;;1.48;1.38;;;22.60;60.30;;;;;;5064229;28;20535;-69
2022/11/19 04:46:08;;;;;;;1.60;1.50;;;22.60;60.20;;;;;;5013129;28;20379;-69
2022/11/19 04:48:34;;;;;;;1.75;1.65;;;22.50;60.40;;;;;;5033110;28;20033;-69
2022/11/19 04:51:00;;;;;;;1.73;1.63;;;22.40;60.20;;;;;;5033378;28;20033;-69
2022/11/19 04:53:26;;;;;;;1.75;1.65;;;22.40;60.20;;;;;;5033894;28;20029;-69
2022/11/19 04:55:52;;;;;;;2.28;2.08;;;22.50;60.30;;;;;;5038377;28;20079;-69
2022/11/19 04:58:18;;;;;;;2.20;1.90;;;22.40;60.40;;;;;;5033711;28;20029;-69
2022/11/19 05:00:44;;;;;;;1.83;1.73;;;22.40;60.50;;;;;;5036776;28;20032;-70
2022/11/19 05:03:10;;;;;;;2.42;1.80;;;22.40;60.20;;;;;;5050467;28;20037;-69
2022/11/19 05:05:36;;;;;;;2.90;2.17;;;22.30;60.50;;;;;;5042430;28;20033;-69
2022/11/19 05:08:02;;;;;;;2.30;2.10;;;22.20;60.40;;;;;;5037566;28;20033;-69
2022/11/19 05:10:28;;;;;;;2.70;2.03;;;22.20;60.70;;;;;;5048063;28;20045;-69
2022/11/19 05:12:53;;;;;;;2.17;1.77;;;22.10;60.50;;;;;;5052078;28;20386;-69
2022/11/19 05:15:19;;;;;;;2.53;2.33;;;22.10;60.80;;;;;;5050328;28;20032;-69
2022/11/19 05:17:46;;;;;;;2.20;2.00;;;22.10;60.80;;;;;;5050470;28;20053;-70
2022/11/19 05:20:12;;;;;;;2.47;2.28;;;22.20;61.00;;;;;;5052572;28;20405;-70
2022/11/19 05:22:38;;;;;;;2.40;2.20;;;22.00;60.70;;;;;;5050825;28;20115;-69
2022/11/19 05:25:04;;;;;;;5.20;3.63;;;22.10;60.80;;;;;;5012968;28;20113;-69
2022/11/19 05:27:31;;;;;;;3.88;2.90;;;22.00;60.60;;;;;;5047761;28;20032;-69
2022/11/19 05:29:56;;;;;;;2.95;2.65;;;22.00;60.60;;;;;;5052351;28;20041;-70
2022/11/19 05:32:22;;;;;;;4.13;3.20;;;22.00;60.70;;;;;;5044942;28;20078;-69
2022/11/19 05:34:48;;;;;;;4.60;2.92;;;22.10;60.60;;;;;;5050376;28;20535;-70
2022/11/19 05:37:14;;;;;;;4.97;4.18;;;22.10;60.40;;;;;;5050920;28;20090;-69
2022/11/19 05:39:40;;;;;;;5.07;3.70;;;22.00;60.40;;;;;;5052830;28;20040;-69
2022/11/19 05:42:06;;;;;;;3.70;3.40;;;22.00;60.30;;;;;;5039411;28;20045;-70
2022/11/19 05:44:32;;;;;;;6.60;4.10;;;22.10;60.20;;;;;;5045285;28;20497;-69
2022/11/19 05:46:58;;;;;;;7.53;4.57;;;22.00;60.00;;;;;;5042881;28;20025;-69
2022/11/19 05:49:25;;;;;;;4.32;3.67;;;22.00;60.20;;;;;;5036107;28;20045;-69
2022/11/19 05:51:50;;;;;;;6.93;4.55;;;22.10;60.00;;;;;;5031789;28;20037;-69
2022/11/19 05:54:17;;;;;;;5.65;4.10;;;22.00;60.20;;;;;;5030874;28;20395;-70
2022/11/19 05:56:43;;;;;;;3.40;2.95;;;22.00;60.10;;;;;;5034959;28;20050;-69
2022/11/19 05:59:09;;;;;;;5.07;3.10;;;21.90;60.20;;;;;;5052429;28;20037;-70
2022/11/19 06:01:35;;;;;;;3.92;3.63;;;22.00;60.20;;;;;;5038924;28;20021;-69
2022/11/19 06:04:00;;;;;;;4.25;2.90;;;22.10;60.10;;;;;;5032300;28;20048;-69
2022/11/19 06:06:27;;;;;;;4.18;3.78;;;22.00;60.40;;;;;;5032370;28;20041;-69
2022/11/19 06:08:52;;;;;;;4.38;3.92;;;22.00;58.00;;;;;;5041833;28;20051;-69
2022/11/19 06:14:03;;;;;;;4.90;4.38;;;21.80;58.80;;;;;;5052286;28;20440;-69
2022/11/19 06:16:29;;;;;;;4.65;4.13;;;21.80;60.20;;;;;;5046926;28;20025;-69
2022/11/19 06:18:55;;;;;;;5.75;4.40;;;21.80;60.50;;;;;;5052252;28;20056;-69
2022/11/19 06:21:21;;;;;;;7.80;5.03;;;21.80;58.20;;;;;;5048290;28;20107;-69
2022/11/19 06:23:47;;;;;;;5.03;4.40;;;21.80;60.20;;;;;;5050220;28;20098;-69
2022/11/19 06:26:25;;;;;;;5.55;4.43;;;21.70;58.40;;;;;;5042068;28;20060;-69
2022/11/19 06:28:51;;;;;;;5.25;4.75;;;21.80;59.90;;;;;;5062722;28;20107;-69
2022/11/19 06:31:18;;;;;;;5.90;4.85;;;21.80;59.60;;;;;;5034234;28;20041;-69
2022/11/19 06:33:44;;;;;;;4.20;3.75;;;21.90;59.90;;;;;;5031680;28;20041;-69
2022/11/19 06:36:11;;;;;;;4.20;3.80;;;22.10;59.10;;;;;;5030767;28;20081;-70
2022/11/19 06:38:36;;;;;;;4.65;3.80;;;22.10;58.50;;;;;;5029786;28;20052;-69
2022/11/19 06:41:02;;;;;;;5.88;4.93;;;22.10;58.60;;;;;;5031896;28;20459;-69
2022/11/19 06:43:29;;;;;;;5.55;4.68;;;22.20;58.20;;;;;;5030366;28;20029;-70
2022/11/19 06:45:55;;;;;;;5.05;4.55;;;22.10;58.50;;;;;;5030168;28;20425;-69
2022/11/19 06:48:21;;;;;;;5.05;3.90;;;22.00;58.40;;;;;;5032040;28;20472;-69
2022/11/19 06:50:47;;;;;;;6.00;5.10;;;22.00;58.80;;;;;;5030681;28;20029;-70
2022/11/19 06:53:13;;;;;;;9.10;6.00;;;22.00;59.10;;;;;;5031378;28;20041;-70
2022/11/19 06:55:40;;;;;;;6.20;4.78;;;21.90;59.10;;;;;;5031658;28;20463;-69
2022/11/19 06:58:07;;;;;;;6.88;4.88;;;22.00;59.20;;;;;;5031154;28;20025;-70
2022/11/19 07:00:34;;;;;;;6.43;4.68;;;21.90;59.10;;;;;;5023690;28;20045;-69
2022/11/19 07:03:00;;;;;;;6.18;5.47;;;22.00;58.40;;;;;;5031712;28;20414;-66
2022/11/19 07:05:26;;;;;;;5.53;4.32;;;22.00;51.60;;;;;;5035652;28;20078;-69
2022/11/19 07:07:52;;;;;;;4.28;3.88;;;22.10;48.10;;;;;;5032345;28;20080;-69
2022/11/19 07:10:19;;;;;;;5.53;4.68;;;22.10;47.70;;;;;;5024179;28;20439;-67
2022/11/19 07:12:44;;;;;;;4.68;4.15;;;22.20;46.50;;;;;;5030372;28;20030;-70
2022/11/19 07:15:11;;;;;;;3.25;2.97;;;22.20;47.00;;;;;;5033831;28;20071;-71
2022/11/19 07:17:37;;;;;;;5.57;4.47;;;22.30;45.60;;;;;;5060194;28;20069;-72
2022/11/19 07:20:04;;;;;;;4.82;4.25;;;22.30;44.90;;;;;;5041325;28;20196;-70
2022/11/19 07:22:30;;;;;;;4.68;4.03;;;22.30;47.10;;;;;;5035274;28;20045;-71
2022/11/19 07:24:56;;;;;;;5.88;3.92;;;22.40;46.70;;;;;;5051255;28;20040;-68
2022/11/19 07:27:22;;;;;;;3.97;3.60;;;22.40;45.90;;;;;;5032096;28;20143;-66
2022/11/19 07:29:48;;;;;;;5.15;4.53;;;22.50;44.70;;;;;;5032442;28;20028;-66
2022/11/19 07:32:14;;;;;;;6.85;5.28;;;22.50;46.20;;;;;;5042675;28;20053;-67
2022/11/19 07:34:40;;;;;;;5.63;5.03;;;22.70;56.30;;;;;;5051837;28;20157;-66
2022/11/19 07:37:06;;;;;;;5.93;4.97;;;22.70;56.20;;;;;;5029342;28;20037;-66
2022/11/19 07:39:32;;;;;;;6.53;5.78;;;22.80;57.20;;;;;;5038926;28;20029;-66
2022/11/19 07:44:44;;;;;;;7.30;4.80;;;23.00;58.30;;;;;;5044139;28;20070;-68
2022/11/19 07:47:09;;;;;;;9.02;5.28;;;22.90;58.90;;;;;;5032467;28;20112;-67
2022/11/19 07:49:36;;;;;;;6.65;4.75;;;22.90;62.20;;;;;;5027454;28;20037;-67
2022/11/19 07:52:02;;;;;;;8.18;6.90;;;22.90;63.30;;;;;;5030153;28;20028;-69
2022/11/19 07:54:28;;;;;;;0.60;0.60;;;23.20;64.80;;;;;;5025496;28;20033;-67
2022/11/19 07:56:54;;;;;;;0.25;0.25;;;23.40;59.30;;;;;;5027830;28;20044;-67
2022/11/19 07:59:20;;;;;;;2.67;2.20;;;23.60;61.40;;;;;;5027677;28;20478;-68
2022/11/19 08:01:46;;;;;;;4.68;4.13;;;23.60;60.60;;;;;;5033157;28;20052;-69
2022/11/19 08:04:12;;;;;;;1.65;1.27;;;23.60;58.90;;;;;;5033019;28;20030;-69
2022/11/19 08:06:38;;;;;;;2.15;1.83;;;23.70;57.70;;;;;;5031242;28;20041;-67
2022/11/19 08:09:05;;;;;;;0.52;0.52;;;23.70;57.00;;;;;;5044417;28;20094;-69
2022/11/19 08:11:31;;;;;;;4.32;2.63;;;23.80;56.10;;;;;;5029197;28;20064;-68
2022/11/19 08:14:01;;;;;;;12.23;4.88;;;23.80;55.50;;;;;;5031552;28;20411;-68
2022/11/19 08:19:14;;;;;;;5.00;2.88;;;23.80;55.70;;;;;;5032863;28;20033;-70
2022/11/19 08:21:42;;;;;;;1.98;1.55;;;23.90;53.60;;;;;;5031939;28;20064;-68
2022/11/19 08:24:09;;;;;;;4.35;3.20;;;24.00;52.80;;;;;;5032796;28;20462;-68
2022/11/19 08:26:36;;;;;;;3.63;2.40;;;24.00;51.50;;;;;;5014764;28;20072;-66
2022/11/19 08:29:02;;;;;;;1.83;1.73;;;24.10;51.60;;;;;;5031715;28;20637;-66
2022/11/19 08:31:28;;;;;;;0.98;0.95;;;24.10;50.70;;;;;;5032508;28;20033;-68
2022/11/19 08:33:54;;;;;;;5.45;4.35;;;24.30;51.10;;;;;;5033534;28;20098;-67
2022/11/19 08:36:20;;;;;;;1.98;1.85;;;24.20;51.20;;;;;;5030865;28;20159;-68
2022/11/19 08:38:46;;;;;;;4.72;2.83;;;24.20;51.40;;;;;;5032165;28;20033;-66
2022/11/19 08:44:00;;;;;;;3.50;2.10;;;24.30;52.50;;;;;;5029054;28;20142;-66
2022/11/19 08:46:27;;;;;;;2.53;2.25;;;24.30;49.40;;;;;;5033361;28;20104;-68
2022/11/19 08:48:53;;;;;;;7.75;2.15;;;24.40;49.30;;;;;;5031783;28;20038;-71
2022/11/19 08:51:19;;;;;;;0.52;0.52;;;24.30;43.80;;;;;;5032037;28;20108;-67
2022/11/19 08:53:45;;;;;;;6.32;5.65;;;24.40;47.20;;;;;;5013042;28;20030;-69
2022/11/19 08:56:11;;;;;;;10.40;6.10;;;24.50;44.10;;;;;;5037369;28;20382;-69
2022/11/19 08:58:37;;;;;;;7.43;5.55;;;24.60;41.60;;;;;;5018657;28;20045;-68
2022/11/19 09:01:11;;;;;;;6.60;5.97;;;24.50;41.10;;;;;;5051283;28;20119;-72
2022/11/19 09:03:37;;;;;;;7.20;6.00;;;24.50;40.10;;;;;;5052135;28;20033;-68
2022/11/19 09:06:04;;;;;;;7.28;6.57;;;24.40;38.20;;;;;;5053633;28;20031;-68
2022/11/19 09:08:31;;;;;;;7.60;6.30;;;24.40;39.20;;;;;;5038225;28;20760;-67
2022/11/19 09:10:57;;;;;;;7.78;6.88;;;24.20;40.60;;;;;;5031511;28;20041;-68
2022/11/19 09:13:23;;;;;;;10.05;6.07;;;24.20;43.50;;;;;;5033962;28;20088;-68
2022/11/19 09:15:52;;;;;;;8.43;6.65;;;24.30;42.70;;;;;;5031913;28;20121;-67
2022/11/19 09:18:18;;;;;;;9.10;6.68;;;24.30;42.30;;;;;;5032679;28;20112;-66
2022/11/19 09:20:44;;;;;;;9.48;7.15;;;24.30;43.90;;;;;;5035855;28;20624;-67
2022/11/19 09:23:10;;;;;;;13.82;7.03;;;24.00;42.80;;;;;;5032188;28;20048;-67
2022/11/19 09:25:36;;;;;;;8.63;6.93;;;24.30;43.90;;;;;;5030203;28;20037;-69
2022/11/19 09:28:02;;;;;;;8.65;6.38;;;24.30;46.60;;;;;;5032211;28;20379;-69
2022/11/19 09:30:28;;;;;;;11.48;6.78;;;24.20;42.40;;;;;;5032088;28;20398;-68
2022/11/19 09:32:54;;;;;;;8.35;5.95;;;24.10;41.70;;;;;;5032031;28;20029;-67
2022/11/19 09:35:20;;;;;;;9.60;6.55;;;24.10;41.20;;;;;;5032731;28;20125;-68
2022/11/19 09:37:46;;;;;;;10.32;7.13;;;24.20;42.70;;;;;;5030180;28;20049;-68
2022/11/19 09:40:19;;;;;;;18.23;7.57;;;24.10;41.60;;;;;;5032794;28;20057;-66
2022/11/19 09:42:48;;;;;;;;;;;24.20;42.60;;;;;;5030443;28;20026;-67
2022/11/19 09:45:26;;;;;;;5.18;4.40;;;24.10;42.50;;;;;;5028507;28;19959;-67
2022/11/19 09:48:24;;;;;;;19.17;6.90;;;24.00;39.50;;;;;;5032330;28;20049;-67
2022/11/19 09:50:59;;;;;;;7.55;5.78;;;24.20;40.80;;;;;;5031038;28;20099;-68
2022/11/19 09:53:30;;;;;;;9.82;7.00;;;24.20;41.30;;;;;;5031860;28;20041;-69
2022/11/19 09:55:58;;;;;;;8.10;5.70;;;24.20;41.20;;;;;;5043480;28;20135;-70
2022/11/19 09:58:27;;;;;;;7.85;7.00;;;24.30;51.30;;;;;;5027640;28;20475;-70
2022/11/19 10:00:53;;;;;;;8.25;6.63;;;24.30;49.50;;;;;;5036256;28;20033;-69
2022/11/19 10:03:22;;;;;;;7.78;6.78;;;24.20;51.80;;;;;;5048795;28;20120;-70
2022/11/19 10:06:19;;;;;;;9.27;6.70;;;24.20;51.70;;;;;;5034900;28;20051;-72
2022/11/19 10:08:54;;;;;;;8.93;7.70;;;24.20;51.70;;;;;;5047985;28;20128;-70
2022/11/19 10:11:35;;;;;;;10.90;7.53;;;24.10;51.60;;;;;;5044182;28;20437;-69
2022/11/19 10:14:04;;;;;;;9.45;6.35;;;24.00;53.30;;;;;;5042746;28;20033;-67
2022/11/19 10:16:54;;;;;;;8.20;7.38;;;23.90;47.90;;;;;;5045749;28;20032;-71
2022/11/19 10:19:42;;;;;;;9.85;7.15;;;24.00;45.90;;;;;;5047066;28;20043;-70
2022/11/19 10:22:32;;;;;;;12.82;7.78;;;24.20;41.80;;;;;;5046785;28;20100;-70
2022/11/19 10:25:11;;;;;;;9.52;6.90;;;24.30;50.90;;;;;;5048525;28;20025;-70
2022/11/19 10:27:49;;;;;;;7.00;6.30;;;24.10;41.50;;;;;;5048111;28;20044;-70
2022/11/19 10:30:21;;;;;;;8.13;5.13;;;24.00;39.30;;;;;;5046762;28;20040;-71
2022/11/19 10:32:59;;;;;;;9.77;6.85;;;24.10;38.90;;;;;;5047965;28;20040;-71
2022/11/19 10:35:32;;;;;;;10.30;6.28;;;24.00;38.00;;;;;;5048749;28;20036;-70
2022/11/19 10:38:06;;;;;;;8.10;6.07;;;23.90;39.30;;;;;;5044377;28;20526;-70
2022/11/19 10:41:04;;;;;;;12.48;7.95;;;24.00;40.60;;;;;;5034832;28;20057;-72
2022/11/19 10:43:35;;;;;;;12.35;6.53;;;24.00;39.30;;;;;;5024695;28;20069;-71
2022/11/19 10:46:05;;;;;;;8.65;5.75;;;23.80;41.00;;;;;;5033664;28;20382;-71
2022/11/19 10:48:40;;;;;;;7.55;5.93;;;23.90;39.90;;;;;;5034115;28;20029;-72
2022/11/19 10:51:22;;;;;;;9.80;6.30;;;23.90;40.70;;;;;;5029630;28;20048;-71
2022/11/19 10:53:50;;;;;;;8.50;6.50;;;24.00;41.40;;;;;;5042289;28;20116;-75
2022/11/19 10:56:22;;;;;;;6.78;5.55;;;24.00;40.50;;;;;;5027641;28;20064;-69
2022/11/19 10:59:00;;;;;;;8.93;5.97;;;24.10;41.30;;;;;;5029951;28;20172;-73
2022/11/19 11:01:30;;;;;;;10.63;5.65;;;24.00;39.70;;;;;;5030268;28;20021;-70
2022/11/19 11:04:17;;;;;;;9.65;6.30;;;24.10;43.10;;;;;;5032945;28;20046;-72
2022/11/19 11:06:55;;;;;;;9.27;7.18;;;24.30;43.40;;;;;;5031860;28;20061;-73
2022/11/19 11:09:34;;;;;;;8.35;6.95;;;24.50;43.50;;;;;;5036700;28;20026;-72
2022/11/19 11:15:16;;;;;;;11.35;7.43;;;24.40;46.10;;;;;;5028910;28;20083;-70
2022/11/19 11:17:45;;;;;;;6.72;5.95;;;24.50;37.20;;;;;;5046318;28;20057;-70
2022/11/19 11:20:17;;;;;;;6.68;6.07;;;24.40;38.70;;;;;;5030602;28;20075;-70
2022/11/19 11:22:45;;;;;;;9.32;7.53;;;24.30;37.60;;;;;;5038864;28;20125;-70
2022/11/19 11:25:27;;;;;;;8.77;7.03;;;24.30;36.90;;;;;;5032633;28;20480;-70
2022/11/19 11:28:14;;;;;;;13.18;6.03;;;24.20;36.90;;;;;;5048188;28;20091;-71
2022/11/19 11:30:58;;;;;;;8.55;6.47;;;24.20;37.40;;;;;;5035196;28;20076;-70
2022/11/19 11:33:30;;;;;;;8.23;6.10;;;24.10;38.50;;;;;;5029578;28;20136;-72
2022/11/19 11:36:00;;;;;;;7.80;6.28;;;24.20;37.80;;;;;;5029563;28;20059;-71
2022/11/19 11:38:27;;;;;;;9.07;5.72;;;24.20;37.40;;;;;;5030104;28;20044;-70
2022/11/19 11:41:00;;;;;;;8.30;6.90;;;24.10;38.70;;;;;;5036966;28;20474;-68
2022/11/19 11:43:27;;;;;;;8.88;7.20;;;24.00;48.00;;;;;;5049277;28;20044;-69
2022/11/19 11:46:03;;;;;;;7.43;6.72;;;24.10;49.00;;;;;;5042326;28;20113;-70
2022/11/19 11:48:40;;;;;;;9.75;7.00;;;23.90;50.00;;;;;;5026281;28;20094;-70
2022/11/19 11:51:06;;;;;;;8.48;7.57;;;23.90;50.90;;;;;;5048726;28;20097;-69
2022/11/19 11:53:33;;;;;;;7.32;6.28;;;23.80;51.50;;;;;;5035442;28;20051;-69
2022/11/19 11:56:01;;;;;;;9.35;7.55;;;23.60;51.90;;;;;;5045193;28;20021;-70
2022/11/19 11:58:31;;;;;;;9.27;6.90;;;23.50;52.80;;;;;;5039511;28;20025;-69
2022/11/19 12:01:13;;;;;;;10.57;7.40;;;23.50;53.80;;;;;;5034114;28;20025;-70
2022/11/19 12:03:57;;;;;;;7.70;6.57;;;23.40;53.90;;;;;;5046093;28;20100;-69
2022/11/19 12:06:32;;;;;;;8.82;6.47;;;23.30;54.40;;;;;;5033259;28;20061;-69
2022/11/19 12:09:20;;;;;;;12.93;7.78;;;23.20;54.50;;;;;;5033534;28;20037;-69
2022/11/19 12:11:59;;;;;;;11.15;6.30;;;23.20;54.80;;;;;;5042769;28;20131;-69
2022/11/19 12:14:36;;;;;;;7.90;6.60;;;23.20;55.00;;;;;;5041312;28;20049;-70
2022/11/19 12:17:02;;;;;;;8.13;6.85;;;23.20;55.00;;;;;;5027803;28;20438;-71
2022/11/19 12:19:43;;;;;;;10.82;7.30;;;23.10;54.70;;;;;;5030946;28;20086;-69
2022/11/19 12:22:26;;;;;;;10.10;7.22;;;23.10;54.50;;;;;;5027305;28;20362;-71
2022/11/19 12:25:31;;;;;;;9.88;6.72;;;23.10;54.50;;;;;;5029479;28;20042;-71
2022/11/19 12:28:09;;;;;;;7.75;6.25;;;23.10;54.50;;;;;;5030064;28;20091;-70
2022/11/19 12:30:46;;;;;;;8.27;6.32;;;23.00;54.70;;;;;;5027269;28;20033;-70
2022/11/19 12:33:37;;;;;;;8.32;6.57;;;23.00;54.40;;;;;;5029384;28;20526;-70
2022/11/19 12:36:29;;;;;;;7.28;5.80;;;23.10;54.40;;;;;;5026012;28;20041;-71
2022/11/19 12:39:21;;;;;;;8.82;6.80;;;23.00;54.60;;;;;;5023525;28;20037;-70
2022/11/19 12:42:15;;;;;;;8.80;6.65;;;23.10;54.70;;;;;;5005650;28;20038;-71
2022/11/19 12:44:54;;;;;;;10.38;7.30;;;23.00;54.70;;;;;;5000672;28;20534;-70
2022/11/19 12:47:31;;;;;;;7.60;6.13;;;22.90;55.00;;;;;;5003585;28;20725;-70
2022/11/19 12:50:00;;;;;;;11.50;6.82;;;23.00;55.10;;;;;;5008073;28;20049;-70
2022/11/19 12:52:29;;;;;;;9.05;6.20;;;23.20;54.90;;;;;;5008114;28;20081;-70
2022/11/19 12:55:22;;;;;;;11.43;6.63;;;23.00;55.00;;;;;;5007400;28;20116;-70
2022/11/19 12:58:24;;;;;;;8.75;6.80;;;23.10;55.20;;;;;;4988363;28;20145;-70
2022/11/19 13:00:58;;;;;;;11.30;7.03;;;23.10;55.30;;;;;;5013838;28;20045;-70
2022/11/19 13:03:55;;;;;;;12.82;7.75;;;23.00;55.20;;;;;;5031213;28;20441;-70
2022/11/19 13:06:27;;;;;;;10.70;7.32;;;23.10;55.40;;;;;;5026676;28;20649;-70
2022/11/19 13:09:06;;;;;;;11.07;7.65;;;23.10;55.10;;;;;;5025483;28;20112;-70
2022/11/19 13:11:51;;;;;;;14.07;8.82;;;23.20;54.80;;;;;;5030610;28;20060;-71
2022/11/19 13:14:26;;;;;;;9.45;7.10;;;23.40;54.60;;;;;;5031037;28;20041;-70
2022/11/19 13:16:53;;;;;;;8.35;6.95;;;23.40;54.40;;;;;;5028067;28;20263;-70
2022/11/19 13:19:32;;;;;;;9.63;7.53;;;23.50;54.30;;;;;;5009486;28;20037;-70
2022/11/19 13:22:15;;;;;;;11.48;7.65;;;23.50;54.30;;;;;;5049926;28;20033;-70
2022/11/19 13:25:03;;;;;;;10.68;7.25;;;23.40;54.40;;;;;;5033680;28;20037;-70
2022/11/19 13:27:30;;;;;;;11.95;7.45;;;23.50;54.50;;;;;;5032783;28;20347;-70
2022/11/19 13:30:02;;;;;;;11.43;8.27;;;23.50;54.40;;;;;;5037894;28;20040;-70
2022/11/19 13:32:53;;;;;;;11.07;8.32;;;23.50;54.30;;;;;;5038781;28;20029;-71